createdAt,value
2023-01-19T00:01:44.584Z,7.39
2023-01-19T00:04:13.285Z,7.35
2023-01-19T00:06:42.066Z,7.32
2023-01-19T00:09:10.349Z,7.31
2023-01-19T00:11:39.039Z,7.28
2023-01-19T00:14:07.427Z,7.22
2023-01-19T00:16:36.003Z,7.18
2023-01-19T00:19:04.726Z,7.15
2023-01-19T00:21:32.882Z,7.12
2023-01-19T00:24:01.065Z,7.10
2023-01-19T00:26:29.345Z,7.05
2023-01-19T00:28:57.934Z,7.03
2023-01-19T00:31:26.552Z,7.03
2023-01-19T00:33:54.907Z,7.04
2023-01-19T00:36:23.191Z,7.04
2023-01-19T00:38:51.471Z,7.10
2023-01-19T00:41:39.706Z,7.15
2023-01-19T00:44:08.576Z,7.21
2023-01-19T00:46:37.093Z,7.27
2023-01-19T00:49:06.086Z,7.32
2023-01-19T00:51:34.276Z,7.37
2023-01-19T00:54:05.108Z,7.43
2023-01-19T00:56:33.388Z,7.45
2023-01-19T00:59:02.183Z,7.48
2023-01-19T01:01:45.040Z,7.49
2023-01-19T01:04:15.021Z,7.51
2023-01-19T01:06:43.310Z,7.56
2023-01-19T01:09:14.756Z,7.61
2023-01-19T01:11:43.893Z,7.64
2023-01-19T01:14:12.856Z,7.67
2023-01-19T01:16:41.498Z,7.71
2023-01-19T01:19:09.931Z,7.75
2023-01-19T01:21:38.224Z,7.78
2023-01-19T01:24:08.025Z,7.79
2023-01-19T01:26:36.115Z,7.81
2023-01-19T01:29:06.554Z,7.85
2023-01-19T01:31:34.965Z,7.87
2023-01-19T01:34:03.630Z,7.89
2023-01-19T01:36:33.637Z,7.89
2023-01-19T01:39:01.820Z,7.90
2023-01-19T01:41:30.635Z,7.90
2023-01-19T01:44:01.832Z,7.90
2023-01-19T01:46:32.296Z,7.90
2023-01-19T01:49:05.997Z,7.90
2023-01-19T01:51:48.404Z,7.88
2023-01-19T01:54:27.619Z,7.87
2023-01-19T01:57:01.146Z,7.84
2023-01-19T01:59:39.499Z,7.84
2023-01-19T02:02:51.391Z,7.85
2023-01-19T02:05:36.465Z,7.88
2023-01-19T02:08:35.688Z,7.88
2023-01-19T02:11:23.714Z,7.88
2023-01-19T02:13:51.988Z,7.87
2023-01-19T02:16:20.537Z,7.85
2023-01-19T02:18:48.963Z,7.83
2023-01-19T02:21:29.013Z,7.80
2023-01-19T02:24:01.799Z,7.76
2023-01-19T02:26:35.397Z,7.74
2023-01-19T02:29:21.702Z,7.71
2023-01-19T02:31:50.794Z,7.66
2023-01-19T02:34:21.125Z,7.65
2023-01-19T02:36:54.116Z,7.64
2023-01-19T02:39:34.169Z,7.64
2023-01-19T02:42:15.810Z,7.61
2023-01-19T02:44:48.416Z,7.62
2023-01-19T02:47:17.223Z,7.64
2023-01-19T02:49:53.998Z,7.65
2023-01-19T02:52:22.811Z,7.66
2023-01-19T02:55:19.628Z,7.66
2023-01-19T02:58:02.250Z,7.64
2023-01-19T03:00:52.104Z,7.61
2023-01-19T03:03:42.188Z,7.58
2023-01-19T03:06:31.563Z,7.57
2023-01-19T03:09:21.737Z,7.56
2023-01-19T03:12:29.517Z,7.55
2023-01-19T03:15:05.266Z,7.51
2023-01-19T03:17:36.028Z,7.51
2023-01-19T03:20:06.883Z,7.54
2023-01-19T03:22:35.537Z,7.55
2023-01-19T03:25:04.715Z,7.56
2023-01-19T03:27:41.140Z,7.53
2023-01-19T03:30:26.272Z,7.50
2023-01-19T03:33:07.392Z,7.49
2023-01-19T03:35:39.621Z,7.47
2023-01-19T03:38:15.063Z,7.44
2023-01-19T03:40:45.392Z,7.38
2023-01-19T03:43:16.954Z,7.35
2023-01-19T03:45:46.878Z,7.34
2023-01-19T03:48:15.255Z,7.34
2023-01-19T03:50:43.545Z,7.35
2023-01-19T03:53:14.893Z,7.34
2023-01-19T03:55:47.402Z,7.31
2023-01-19T03:58:15.762Z,7.31
2023-01-19T04:00:44.553Z,7.33
2023-01-19T04:03:17.661Z,7.33
2023-01-19T04:05:46.340Z,7.31
2023-01-19T04:08:15.325Z,7.26
2023-01-19T04:10:43.811Z,7.24
2023-01-19T04:13:12.201Z,7.21
2023-01-19T04:15:40.614Z,7.17
2023-01-19T04:18:09.272Z,7.08
2023-01-19T04:20:37.653Z,7.02
2023-01-19T04:23:06.161Z,6.97
2023-01-19T04:25:34.540Z,6.92
2023-01-19T04:28:03.222Z,6.90
2023-01-19T04:30:32.215Z,6.88
2023-01-19T04:33:00.972Z,6.85
2023-01-19T04:35:29.920Z,6.85
2023-01-19T04:37:58.093Z,6.84
2023-01-19T04:40:26.371Z,6.80
2023-01-19T04:42:54.882Z,6.86
2023-01-19T04:45:23.543Z,6.88
2023-01-19T04:47:52.134Z,6.88
2023-01-19T04:50:20.418Z,6.89
2023-01-19T04:52:49.239Z,6.90
2023-01-19T04:55:18.250Z,6.88
2023-01-19T04:57:46.794Z,6.88
2023-01-19T05:00:17.955Z,6.84
2023-01-19T05:02:46.566Z,6.80
2023-01-19T05:05:16.504Z,6.75
2023-01-19T05:07:44.734Z,6.70
2023-01-19T05:10:13.532Z,6.69
2023-01-19T05:12:42.630Z,6.70
2023-01-19T05:15:11.364Z,6.72
2023-01-19T05:17:40.014Z,6.75
2023-01-19T05:20:11.201Z,6.77
2023-01-19T05:22:39.853Z,6.77
2023-01-19T05:25:08.933Z,6.80
2023-01-19T05:27:38.752Z,6.84
2023-01-19T05:30:07.967Z,6.87
2023-01-19T05:32:36.338Z,6.90
2023-01-19T05:35:05.395Z,6.87
2023-01-19T05:37:33.640Z,6.88
2023-01-19T05:40:01.950Z,6.94
2023-01-19T05:42:32.093Z,7.00
2023-01-19T05:45:01.363Z,7.02
2023-01-19T05:47:30.144Z,7.01
2023-01-19T05:49:58.735Z,7.02
2023-01-19T05:52:27.018Z,6.99
2023-01-19T05:54:55.394Z,6.98
2023-01-19T05:57:24.091Z,7.00
2023-01-19T05:59:52.575Z,7.01
2023-01-19T06:02:21.935Z,7.03
2023-01-19T06:04:50.365Z,7.07
2023-01-19T06:07:18.651Z,7.15
2023-01-19T06:09:47.347Z,7.29
2023-01-19T06:12:15.523Z,7.39
2023-01-19T06:14:43.906Z,7.45
2023-01-19T06:17:12.190Z,7.47
2023-01-19T06:19:40.916Z,7.48
2023-01-19T06:22:09.622Z,7.47
2023-01-19T06:24:38.161Z,7.43
2023-01-19T06:27:07.570Z,7.45
2023-01-19T06:29:36.357Z,7.49
2023-01-19T06:32:05.758Z,7.56
2023-01-19T06:34:34.050Z,7.60
2023-01-19T06:37:02.636Z,7.64
2023-01-19T06:39:30.821Z,7.67
2023-01-19T06:41:59.209Z,7.68
2023-01-19T06:44:27.587Z,7.71
2023-01-19T06:47:14.520Z,7.75
2023-01-19T06:49:44.104Z,7.83
2023-01-19T06:52:17.604Z,7.90
2023-01-19T06:54:46.400Z,7.99
2023-01-19T06:57:15.369Z,8.05
2023-01-19T06:59:43.691Z,8.09
2023-01-19T07:02:27.486Z,8.16
2023-01-19T07:04:57.177Z,8.21
2023-01-19T07:07:26.306Z,8.27
2023-01-19T07:09:54.823Z,8.36
2023-01-19T07:12:24.230Z,8.43
2023-01-19T07:14:52.920Z,8.49
2023-01-19T07:17:21.414Z,8.55
2023-01-19T07:19:49.588Z,8.63
2023-01-19T07:22:17.775Z,8.76
2023-01-19T07:24:46.052Z,8.93
2023-01-19T07:27:16.596Z,9.06
2023-01-19T07:29:44.873Z,9.17
2023-01-19T07:32:13.553Z,9.27
2023-01-19T07:34:41.950Z,9.39
2023-01-19T07:37:10.324Z,9.52
2023-01-19T07:39:38.704Z,9.64
2023-01-19T07:42:07.198Z,9.79
2023-01-19T07:44:35.987Z,9.90
2023-01-19T07:47:07.649Z,9.99
2023-01-19T07:49:36.645Z,10.07
2023-01-19T07:52:05.658Z,10.14
2023-01-19T07:54:34.130Z,10.20
2023-01-19T07:57:02.411Z,10.27
2023-01-19T07:59:32.399Z,10.33
2023-01-19T08:02:01.478Z,10.41
2023-01-19T08:04:30.051Z,10.51
2023-01-19T08:06:58.511Z,10.62
2023-01-19T08:09:26.999Z,10.76
2023-01-19T08:11:55.481Z,10.97
2023-01-19T08:14:23.664Z,11.18
2023-01-19T08:16:52.064Z,11.40
2023-01-19T08:19:20.600Z,11.64
2023-01-19T08:21:48.827Z,11.82
2023-01-19T08:24:23.004Z,12.02
2023-01-19T08:26:58.619Z,12.21
2023-01-19T08:29:27.571Z,12.43
2023-01-19T08:31:57.733Z,12.63
2023-01-19T08:34:26.395Z,12.79
2023-01-19T08:36:54.569Z,12.93
2023-01-19T08:39:24.078Z,13.07
2023-01-19T08:41:52.675Z,13.20
2023-01-19T08:44:21.630Z,13.37
2023-01-19T08:46:50.263Z,13.60
2023-01-19T08:49:18.542Z,13.97
2023-01-19T08:51:47.241Z,14.56
2023-01-19T08:54:18.539Z,15.15
2023-01-19T08:56:47.276Z,15.67
2023-01-19T08:59:17.093Z,16.15
2023-01-19T09:01:45.375Z,16.57
2023-01-19T09:04:14.271Z,16.93
2023-01-19T09:06:42.928Z,17.25
2023-01-19T09:09:11.045Z,17.58
2023-01-19T09:11:39.218Z,17.97
2023-01-19T09:14:08.649Z,18.29
2023-01-19T09:16:37.009Z,18.60
2023-01-19T09:19:08.800Z,18.89
2023-01-19T09:21:37.261Z,19.13
2023-01-19T09:24:05.752Z,19.46
2023-01-19T09:26:34.233Z,19.58
2023-01-19T09:29:03.247Z,19.84
2023-01-19T09:31:31.470Z,20.10
2023-01-19T09:34:00.111Z,20.45
2023-01-19T09:36:28.277Z,20.72
2023-01-19T09:38:56.666Z,20.92
2023-01-19T09:41:26.581Z,21.06
2023-01-19T09:43:58.150Z,21.17
2023-01-19T09:46:35.604Z,21.38
2023-01-19T09:49:12.803Z,21.52
2023-01-19T09:51:45.396Z,21.80
2023-01-19T09:54:28.527Z,21.89
2023-01-19T09:56:57.107Z,22.13
2023-01-19T09:59:29.257Z,22.29
2023-01-19T10:02:00.524Z,22.46
2023-01-19T10:04:43.034Z,22.65
2023-01-19T10:08:03.798Z,22.93
2023-01-19T10:10:33.226Z,23.10
2023-01-19T10:13:20.233Z,23.20
2023-01-19T10:16:12.977Z,23.36
2023-01-19T10:18:51.715Z,23.84
2023-01-19T10:21:42.893Z,24.11
2023-01-19T10:24:33.429Z,24.43
2023-01-19T10:27:02.075Z,24.60
2023-01-19T10:29:38.365Z,24.64
2023-01-19T10:32:15.021Z,24.69
2023-01-19T10:34:43.892Z,24.78
2023-01-19T10:37:26.105Z,24.88
2023-01-19T10:39:57.486Z,24.87
2023-01-19T10:42:29.730Z,25.02
2023-01-19T10:44:58.726Z,25.13
2023-01-19T10:47:37.180Z,25.17
2023-01-19T10:50:40.886Z,25.46
2023-01-19T10:53:21.171Z,25.94
2023-01-19T10:56:22.485Z,26.25
2023-01-19T10:58:51.801Z,26.60
2023-01-19T11:01:24.595Z,26.91
2023-01-19T11:03:55.599Z,26.99
2023-01-19T11:06:30.747Z,27.10
2023-01-19T11:09:16.848Z,27.20
2023-01-19T11:11:51.419Z,27.44
2023-01-19T11:14:23.781Z,27.63
2023-01-19T11:16:56.530Z,27.92
2023-01-19T11:19:33.471Z,28.18
2023-01-19T11:22:27.110Z,28.31
2023-01-19T11:25:03.884Z,28.42
2023-01-19T11:27:36.565Z,28.25
2023-01-19T11:30:22.554Z,28.37
2023-01-19T11:32:51.896Z,28.45
2023-01-19T11:35:34.267Z,28.31
2023-01-19T11:38:12.270Z,28.18
2023-01-19T11:40:42.292Z,28.24
2023-01-19T11:43:13.738Z,28.13
2023-01-19T11:45:44.937Z,28.14
2023-01-19T11:48:23.719Z,28.19
2023-01-19T11:50:52.419Z,27.96
2023-01-19T11:53:29.502Z,27.64
2023-01-19T11:56:06.526Z,27.19
2023-01-19T11:58:39.697Z,26.64
2023-01-19T12:01:14.007Z,26.25
2023-01-19T12:03:55.358Z,25.98
2023-01-19T12:06:35.305Z,25.65
2023-01-19T12:09:09.743Z,25.36
2023-01-19T12:11:44.114Z,25.17
2023-01-19T12:14:22.875Z,24.79
2023-01-19T12:16:54.775Z,24.57
2023-01-19T12:19:34.170Z,24.46
2023-01-19T12:22:04.297Z,24.14
2023-01-19T12:24:45.268Z,23.87
2023-01-19T12:27:44.051Z,23.65
2023-01-19T12:30:18.771Z,23.42
2023-01-19T12:32:47.677Z,23.17
2023-01-19T12:35:54.181Z,22.93
2023-01-19T12:38:38.180Z,22.68
2023-01-19T12:41:26.197Z,22.51
2023-01-19T12:44:16.792Z,22.39
2023-01-19T12:47:03.394Z,22.30
2023-01-19T12:49:51.620Z,22.19
2023-01-19T12:52:22.057Z,22.06
2023-01-19T12:54:58.928Z,21.95
2023-01-19T12:57:33.150Z,21.82
2023-01-19T13:00:28.191Z,21.65
2023-01-19T13:03:25.593Z,21.47
2023-01-19T13:05:56.089Z,21.31
2023-01-19T13:08:53.160Z,21.13
2023-01-19T13:11:26.317Z,20.98
2023-01-19T13:13:58.120Z,20.89
2023-01-19T13:16:27.713Z,20.73
2023-01-19T13:19:00.730Z,20.58
2023-01-19T13:21:44.671Z,20.50
2023-01-19T13:24:24.302Z,20.40
2023-01-19T13:26:59.135Z,20.30
2023-01-19T13:29:37.541Z,20.21
2023-01-19T13:32:19.450Z,20.08
2023-01-19T13:34:54.891Z,19.96
2023-01-19T13:37:32.061Z,19.88
2023-01-19T13:40:01.245Z,19.74
2023-01-19T13:42:35.782Z,19.63
2023-01-19T13:45:30.889Z,19.51
2023-01-19T13:48:02.875Z,19.38
2023-01-19T13:50:36.046Z,19.26
2023-01-19T13:53:19.188Z,19.16
2023-01-19T13:55:50.340Z,19.10
2023-01-19T13:58:24.294Z,19.06
2023-01-19T14:00:53.135Z,19.01
2023-01-19T14:03:24.191Z,18.94
2023-01-19T14:05:54.561Z,18.89
2023-01-19T14:08:25.570Z,18.83
2023-01-19T14:10:53.877Z,18.76
2023-01-19T14:13:29.799Z,18.71
2023-01-19T14:16:01.173Z,18.62
2023-01-19T14:18:31.777Z,18.53
2023-01-19T14:21:03.458Z,18.43
2023-01-19T14:23:57.648Z,18.26
2023-01-19T14:26:38.565Z,18.02
2023-01-19T14:29:24.041Z,17.77
2023-01-19T14:32:12.794Z,17.50
2023-01-19T14:34:48.847Z,17.21
2023-01-19T14:37:23.778Z,16.94
2023-01-19T14:39:55.543Z,16.81
2023-01-19T14:42:34.878Z,16.65
2023-01-19T14:45:08.221Z,16.52
2023-01-19T14:47:43.267Z,16.37
2023-01-19T14:50:17.837Z,16.23
2023-01-19T14:52:54.819Z,16.15
2023-01-19T14:55:52.062Z,16.10
2023-01-19T14:58:23.194Z,16.01
2023-01-19T15:00:58.156Z,15.92
2023-01-19T15:03:43.619Z,15.83
2023-01-19T15:06:18.973Z,15.75
2023-01-19T15:08:49.021Z,15.65
2023-01-19T15:11:35.990Z,15.49
2023-01-19T15:14:04.474Z,15.34
2023-01-19T15:16:34.782Z,15.22
2023-01-19T15:19:03.183Z,15.07
2023-01-19T15:21:31.780Z,14.89
2023-01-19T15:24:00.566Z,14.70
2023-01-19T15:26:29.161Z,14.51
2023-01-19T15:28:57.439Z,14.32
2023-01-19T15:31:27.020Z,14.18
2023-01-19T15:33:55.911Z,14.12
2023-01-19T15:36:24.584Z,14.06
2023-01-19T15:38:52.816Z,14.04
2023-01-19T15:41:30.020Z,14.05
2023-01-19T15:43:59.106Z,14.07
2023-01-19T15:46:28.181Z,14.13
2023-01-19T15:48:56.386Z,14.19
2023-01-19T15:51:26.881Z,14.24
2023-01-19T15:53:55.511Z,14.27
2023-01-19T15:56:26.570Z,14.31
2023-01-19T15:58:55.349Z,14.31
2023-01-19T16:01:34.051Z,14.27
2023-01-19T16:04:05.644Z,14.26
2023-01-19T16:06:34.440Z,14.23
2023-01-19T16:09:04.040Z,14.19
2023-01-19T16:11:34.387Z,14.14
2023-01-19T16:14:02.944Z,14.08
2023-01-19T16:16:31.391Z,14.05
2023-01-19T16:18:59.817Z,14.00
2023-01-19T16:21:28.607Z,13.92
2023-01-19T16:23:57.101Z,13.83
2023-01-19T16:26:34.651Z,13.75
2023-01-19T16:29:10.577Z,13.71
2023-01-19T16:31:40.969Z,13.66
2023-01-19T16:34:10.394Z,13.61
2023-01-19T16:36:41.395Z,13.54
2023-01-19T16:39:13.811Z,13.42
2023-01-19T16:41:43.879Z,13.33
2023-01-19T16:44:14.771Z,13.28
2023-01-19T16:46:45.715Z,13.19
2023-01-19T16:49:17.075Z,13.13
2023-01-19T16:51:46.057Z,13.10
2023-01-19T16:54:15.961Z,13.08
2023-01-19T16:56:44.776Z,13.04
2023-01-19T16:59:16.390Z,13.00
2023-01-19T17:01:45.817Z,12.98
2023-01-19T17:04:14.848Z,12.95
2023-01-19T17:06:43.528Z,12.80
2023-01-19T17:09:12.387Z,12.68
2023-01-19T17:11:41.321Z,12.60
2023-01-19T17:14:16.643Z,12.52
2023-01-19T17:16:44.939Z,12.46
2023-01-19T17:19:16.916Z,12.41
2023-01-19T17:21:48.810Z,12.29
2023-01-19T17:24:17.637Z,12.25
2023-01-19T17:26:48.928Z,12.18
2023-01-19T17:29:17.814Z,12.08
2023-01-19T17:31:46.986Z,12.02
2023-01-19T17:34:15.301Z,11.96
2023-01-19T17:36:44.201Z,11.87
2023-01-19T17:39:15.117Z,11.81
2023-01-19T17:41:43.318Z,11.77
2023-01-19T17:44:12.014Z,11.69
2023-01-19T17:46:40.297Z,11.63
2023-01-19T17:49:08.890Z,11.57
2023-01-19T17:51:37.265Z,11.52
2023-01-19T17:54:05.963Z,11.45
2023-01-19T17:56:37.715Z,11.36
2023-01-19T17:59:08.287Z,11.32
2023-01-19T18:01:40.137Z,11.25
2023-01-19T18:04:10.012Z,11.20
2023-01-19T18:06:38.733Z,11.14
2023-01-19T18:09:07.922Z,11.11
2023-01-19T18:11:36.211Z,11.07
2023-01-19T18:14:05.547Z,11.01
2023-01-19T18:16:34.111Z,10.98
2023-01-19T18:19:02.390Z,10.92
2023-01-19T18:21:30.975Z,10.87
2023-01-19T18:24:04.506Z,10.81
2023-01-19T18:26:34.798Z,10.76
2023-01-19T18:29:03.498Z,10.74
2023-01-19T18:31:32.077Z,10.73
2023-01-19T18:34:01.115Z,10.71
2023-01-19T18:36:32.145Z,10.72
2023-01-19T18:39:01.693Z,10.74
2023-01-19T18:41:30.275Z,10.77
2023-01-19T18:43:59.229Z,10.80
2023-01-19T18:46:27.820Z,10.82
2023-01-19T18:48:56.205Z,10.86
2023-01-19T18:51:24.814Z,10.88
2023-01-19T18:53:53.172Z,10.89
2023-01-19T18:56:21.580Z,10.91
2023-01-19T18:58:49.949Z,10.86
2023-01-19T19:01:18.807Z,10.80
2023-01-19T19:03:47.331Z,10.70
2023-01-19T19:06:17.139Z,10.66
2023-01-19T19:08:45.834Z,10.67
2023-01-19T19:11:14.358Z,10.65
2023-01-19T19:13:42.711Z,10.60
2023-01-19T19:16:13.095Z,10.58
2023-01-19T19:18:41.419Z,10.53
2023-01-19T19:21:12.260Z,10.46
2023-01-19T19:23:40.443Z,10.43
2023-01-19T19:26:11.284Z,10.41
2023-01-19T19:28:40.734Z,10.41
2023-01-19T19:31:12.062Z,10.43
2023-01-19T19:33:41.142Z,10.44
2023-01-19T19:36:10.584Z,10.42
2023-01-19T19:38:41.290Z,10.42
2023-01-19T19:41:12.749Z,10.42
2023-01-19T19:43:41.269Z,10.40
2023-01-19T19:46:13.035Z,10.39
2023-01-19T19:48:41.881Z,10.42
2023-01-19T19:51:19.090Z,10.44
2023-01-19T19:53:51.230Z,10.45
2023-01-19T19:56:22.280Z,10.47
2023-01-19T19:58:52.461Z,10.48
2023-01-19T20:01:29.064Z,10.50
2023-01-19T20:04:00.232Z,10.52
2023-01-19T20:06:28.822Z,10.50
2023-01-19T20:08:57.205Z,10.52
2023-01-19T20:11:28.354Z,10.53
2023-01-19T20:13:56.530Z,10.56
2023-01-19T20:16:25.075Z,10.61
2023-01-19T20:18:54.400Z,10.64
2023-01-19T20:21:28.737Z,10.65
2023-01-19T20:24:01.061Z,10.66
2023-01-19T20:26:32.479Z,10.65
2023-01-19T20:29:03.154Z,10.62
2023-01-19T20:31:34.487Z,10.53
2023-01-19T20:34:05.917Z,10.52
2023-01-19T20:36:35.457Z,10.59
2023-01-19T20:39:10.480Z,10.79
2023-01-19T20:41:43.816Z,11.01
2023-01-19T20:44:15.624Z,11.22
2023-01-19T20:46:44.212Z,11.39
2023-01-19T20:49:12.587Z,11.53
2023-01-19T20:51:46.313Z,11.62
2023-01-19T20:54:16.729Z,11.68
2023-01-19T20:56:45.231Z,11.70
2023-01-19T20:59:14.182Z,11.77
2023-01-19T21:01:43.280Z,11.85
2023-01-19T21:04:12.988Z,11.91
2023-01-19T21:06:42.193Z,11.95
2023-01-19T21:09:11.162Z,11.98
2023-01-19T21:11:40.127Z,11.95
2023-01-19T21:14:08.303Z,11.87
2023-01-19T21:16:37.586Z,11.79
2023-01-19T21:19:06.000Z,11.69
2023-01-19T21:21:34.273Z,11.59
2023-01-19T21:24:04.302Z,11.53
2023-01-19T21:26:33.785Z,11.55
2023-01-19T21:29:02.868Z,11.57
2023-01-19T21:31:31.672Z,11.59
2023-01-19T21:34:00.002Z,11.58
2023-01-19T21:36:28.467Z,11.55
2023-01-19T21:39:00.918Z,11.45
2023-01-19T21:41:30.658Z,11.34
2023-01-19T21:44:00.973Z,11.23
2023-01-19T21:46:30.620Z,11.09
2023-01-19T21:49:01.581Z,10.91
2023-01-19T21:51:33.644Z,10.77
2023-01-19T21:54:03.473Z,10.65
2023-01-19T21:56:32.304Z,10.53
2023-01-19T21:59:03.166Z,10.40
2023-01-19T22:01:33.231Z,10.27
2023-01-19T22:04:01.586Z,10.16
2023-01-19T22:06:30.057Z,10.05
2023-01-19T22:08:58.644Z,9.97
2023-01-19T22:11:27.345Z,9.90
2023-01-19T22:13:55.825Z,9.79
2023-01-19T22:16:24.208Z,9.74
2023-01-19T22:18:56.371Z,9.69
2023-01-19T22:21:26.815Z,9.64
2023-01-19T22:23:59.080Z,9.58
2023-01-19T22:26:30.040Z,9.56
2023-01-19T22:29:00.173Z,9.55
2023-01-19T22:31:29.600Z,9.54
2023-01-19T22:33:58.510Z,9.57
2023-01-19T22:36:34.107Z,9.59
2023-01-19T22:39:07.311Z,9.61
2023-01-19T22:41:44.958Z,9.61
2023-01-19T22:44:16.461Z,9.55
2023-01-19T22:46:45.157Z,9.53
2023-01-19T22:49:16.706Z,9.52
2023-01-19T22:51:46.153Z,9.50
2023-01-19T22:54:14.388Z,9.45
2023-01-19T22:56:42.985Z,9.38
2023-01-19T22:59:11.883Z,9.30
2023-01-19T23:01:43.234Z,9.21
2023-01-19T23:04:14.762Z,9.16
2023-01-19T23:06:43.470Z,9.09
2023-01-19T23:09:14.338Z,9.01
2023-01-19T23:11:45.164Z,8.94
2023-01-19T23:14:16.307Z,8.83
2023-01-19T23:16:47.255Z,8.74
2023-01-19T23:19:17.411Z,8.65
2023-01-19T23:21:45.965Z,8.56
2023-01-19T23:24:14.130Z,8.50
2023-01-19T23:26:42.519Z,8.42
2023-01-19T23:29:13.786Z,8.33
2023-01-19T23:31:50.646Z,8.24
2023-01-19T23:34:19.553Z,8.18
2023-01-19T23:36:48.068Z,8.14
2023-01-19T23:39:22.271Z,8.10
2023-01-19T23:41:50.838Z,8.07
2023-01-19T23:44:19.873Z,8.04
2023-01-19T23:46:48.219Z,8.02
2023-01-19T23:49:17.223Z,7.97
2023-01-19T23:51:45.702Z,7.95
2023-01-19T23:54:13.880Z,7.97
2023-01-19T23:56:43.000Z,8.03
2023-01-19T23:59:16.505Z,8.10
